Time;durP1;ratioP1;P1;durP2;ratioP2;P2;SDS_P1;SDS_P2;PMS_P1;PMS_P2;Temp;Humidity;BMP_temperature;BMP_pressure;BME280_temperature;BME280_humidity;BME280_pressure;Samples;Min_cycle;Max_cycle;Signal;HPM_P1;HPM_P2
2022/04/15 00:01:23;;;;;;;5.03;3.03;;;;;;;12.16;73.02;101234.53;4818198;29;20037;-77
2022/04/15 00:03:51;;;;;;;4.47;2.58;;;;;;;12.15;73.55;101232.88;4814170;29;20464;-78
2022/04/15 00:06:29;;;;;;;5.10;3.38;;;;;;;12.10;73.61;101235.69;4810564;29;20047;-77
2022/04/15 00:09:05;;;;;;;5.57;2.90;;;;;;;12.07;73.35;101236.25;4788034;29;20087;-77
2022/04/15 00:11:32;;;;;;;3.55;2.60;;;;;;;12.04;73.37;101242.41;4829308;29;20095;-77
2022/04/15 00:14:01;;;;;;;6.18;3.33;;;;;;;12.00;73.64;101230.97;4829050;29;20083;-77
2022/04/15 00:16:27;;;;;;;4.55;2.97;;;;;;;11.96;73.75;101240.22;4820243;29;20039;-77
2022/04/15 00:18:52;;;;;;;4.38;2.85;;;;;;;11.93;73.75;101238.00;4811102;29;20049;-77
2022/04/15 00:21:18;;;;;;;4.38;2.60;;;;;;;11.89;74.13;101240.50;4817867;29;20038;-77
2022/04/15 00:23:44;;;;;;;5.50;2.65;;;;;;;11.88;74.04;101247.19;4829875;29;20069;-77
2022/04/15 00:26:17;;;;;;;5.95;3.30;;;;;;;11.85;73.99;101247.72;4828817;29;20034;-77
2022/04/15 00:28:46;;;;;;;4.80;3.08;;;;;;;11.83;74.20;101242.44;4813768;29;20027;-77
2022/04/15 00:31:11;;;;;;;3.92;2.70;;;;;;;11.83;74.68;101245.22;4828763;29;20046;-77
2022/04/15 00:33:37;;;;;;;4.13;3.05;;;;;;;11.78;74.31;101245.25;4784193;29;20035;-77
2022/04/15 00:36:03;;;;;;;6.05;3.30;;;;;;;11.76;74.76;101244.72;4810457;29;20050;-77
2022/04/15 00:38:34;;;;;;;4.72;2.83;;;;;;;11.74;74.88;101241.38;4796195;29;20034;-77
2022/04/15 00:40:59;;;;;;;4.38;2.95;;;;;;;11.69;75.41;101241.38;4813980;29;20031;-77
2022/04/15 00:43:28;;;;;;;6.53;3.63;;;;;;;11.69;75.95;101238.59;4813916;29;20451;-78
2022/04/15 00:46:05;;;;;;;4.82;2.65;;;;;;;11.66;74.83;101246.69;4822736;29;20035;-77
2022/04/15 00:48:31;;;;;;;5.00;3.13;;;;;;;11.60;75.03;101237.53;4803274;29;20031;-77
2022/04/15 00:51:01;;;;;;;4.57;2.53;;;;;;;11.58;74.26;101243.34;4810438;29;20087;-77
2022/04/15 00:53:28;;;;;;;4.95;2.70;;;;;;;11.53;74.00;101239.75;4825644;29;20033;-77
2022/04/15 00:56:01;;;;;;;4.25;2.88;;;;;;;11.50;75.04;101243.13;4813365;29;20080;-77
2022/04/15 00:58:33;;;;;;;5.38;2.95;;;;;;;11.46;75.03;101242.84;4814184;29;20038;-77
2022/04/15 01:01:02;;;;;;;4.65;2.85;;;;;;;11.45;74.89;101234.78;4810217;29;20042;-77
2022/04/15 01:03:30;;;;;;;4.43;2.63;;;;;;;11.44;75.56;101233.13;4804759;29;20030;-77
2022/04/15 01:05:59;;;;;;;6.95;3.15;;;;;;;11.40;75.83;101236.47;4813040;29;20049;-77
2022/04/15 01:08:28;;;;;;;5.65;3.03;;;;;;;11.39;75.73;101240.38;4828933;29;20077;-77
2022/04/15 01:11:00;;;;;;;4.40;3.00;;;;;;;11.36;76.37;101240.09;4784107;29;20094;-77
2022/04/15 01:13:34;;;;;;;4.97;2.88;;;;;;;11.31;76.87;101238.16;4798850;29;20445;-77
2022/04/15 01:16:02;;;;;;;6.03;3.03;;;;;;;11.28;76.94;101241.53;4788190;29;20488;-77
2022/04/15 01:18:30;;;;;;;4.10;2.80;;;;;;;11.25;76.63;101244.84;4777841;29;20031;-77
2022/04/15 01:20:55;;;;;;;4.53;3.08;;;;;;;11.22;76.96;101241.78;4785786;29;20038;-77
2022/04/15 01:23:23;;;;;;;5.50;2.90;;;;;;;11.20;76.69;101247.66;4813317;29;20369;-77
2022/04/15 01:25:57;;;;;;;5.75;2.70;;;;;;;11.16;76.99;101246.53;4809642;29;20031;-77
2022/04/15 01:28:39;;;;;;;3.38;2.67;;;;;;;11.08;76.81;101247.91;4813467;29;20050;-76
2022/04/15 01:31:07;;;;;;;4.10;2.80;;;;;;;11.03;76.84;101244.31;4799381;29;20038;-76
2022/04/15 01:33:48;;;;;;;3.85;2.50;;;;;;;11.04;76.80;101248.78;4826485;29;20031;-77
2022/04/15 01:36:29;;;;;;;3.25;2.65;;;;;;;10.99;77.34;101249.59;4829981;29;20109;-77
2022/04/15 01:38:58;;;;;;;4.20;2.65;;;;;;;10.92;77.04;101255.44;4814732;29;20226;-77
2022/04/15 01:41:26;;;;;;;5.35;2.60;;;;;;;10.92;76.78;101255.44;4812454;29;20066;-77
2022/04/15 01:43:51;;;;;;;3.58;2.53;;;;;;;10.84;76.76;101258.78;4812396;29;20114;-77
2022/04/15 01:46:20;;;;;;;4.65;2.50;;;;;;;10.82;77.27;101258.22;4796993;29;20068;-76
2022/04/15 01:48:48;;;;;;;3.50;2.40;;;;;;;10.74;76.99;101258.78;4812377;29;20090;-77
2022/04/15 01:51:18;;;;;;;4.45;3.00;;;;;;;10.72;77.11;101261.81;4812635;29;20026;-77
2022/04/15 01:54:11;;;;;;;3.40;2.50;;;;;;;10.70;77.34;101261.28;4825981;29;20125;-77
2022/04/15 01:56:47;;;;;;;4.45;2.60;;;;;;;10.67;77.32;101258.19;4794944;29;20041;-77
2022/04/15 02:00:19;;;;;;;4.28;2.47;;;;;;;10.64;77.08;101261.53;4806283;29;20038;-77
2022/04/15 02:03:07;;;;;;;3.72;2.50;;;;;;;10.59;77.68;101261.56;4759860;30;20052;-77
2022/04/15 02:05:53;;;;;;;4.38;2.50;;;;;;;10.55;77.35;101263.19;4731176;30;20044;-77
2022/04/15 02:08:35;;;;;;;3.83;2.63;;;;;;;10.53;77.58;101263.47;4754878;30;20051;-77
2022/04/15 02:11:42;;;;;;;5.30;3.00;;;;;;;10.50;77.15;101262.09;4728125;30;20079;-77
2022/04/15 02:14:12;;;;;;;5.22;3.20;;;;;;;10.46;77.53;101269.28;4732144;30;20054;-77
2022/04/15 02:16:47;;;;;;;6.85;2.88;;;;;;;10.42;77.97;101262.63;4756821;30;20036;-77
2022/04/15 02:19:18;;;;;;;4.13;2.55;;;;;;;10.38;77.95;101264.28;4738117;30;20044;-77
2022/04/15 02:21:49;;;;;;;4.28;3.13;;;;;;;10.36;77.94;101263.69;4726886;30;20040;-77
2022/04/15 02:24:36;;;;;;;4.13;3.35;;;;;;;10.35;77.73;101269.56;4757839;30;20097;-77
2022/04/15 02:27:16;;;;;;;3.42;2.90;;;;;;;10.33;78.07;101268.97;4756797;30;20043;-77
2022/04/15 02:29:47;;;;;;;4.30;3.00;;;;;;;10.30;77.93;101273.13;4742421;30;20058;-77
2022/04/15 02:32:13;;;;;;;6.40;3.10;;;;;;;10.27;78.31;101274.50;4755954;30;20074;-77
2022/04/15 02:35:27;;;;;;;4.18;2.70;;;;;;;10.28;77.84;101273.44;4756068;30;20500;-80
2022/04/15 02:37:55;;;;;;;;;;;;;;;10.25;78.04;101273.94;4785545;29;20450;-77
2022/04/15 02:40:42;;;;;;;4.63;2.67;;;;;;;10.23;78.26;101276.16;4822920;29;19919;-77
2022/04/15 02:43:31;;;;;;;;;;;;;;;;;;;;;
2022/04/15 02:46:29;;;;;;;3.80;2.90;;;;;;;10.20;78.45;101276.69;4815181;29;20309;-78
2022/04/15 02:48:58;;;;;;;3.63;2.55;;;;;;;10.17;78.53;101270.84;4830446;29;20087;-77
2022/04/15 02:51:39;;;;;;;4.43;2.78;;;;;;;10.17;78.29;101277.25;4809520;29;20062;-77
2022/04/15 02:54:15;;;;;;;3.95;2.75;;;;;;;10.16;78.20;101269.19;4797374;29;20034;-77
2022/04/15 02:56:53;;;;;;;5.68;2.75;;;;;;;10.11;78.71;101272.75;4811384;29;20476;-77
2022/04/15 02:59:29;;;;;;;4.18;2.85;;;;;;;10.12;78.99;101274.44;4808081;29;20027;-78
2022/04/15 03:02:09;;;;;;;5.18;3.38;;;;;;;10.08;78.71;101278.88;4798669;29;20088;-77
2022/04/15 03:04:49;;;;;;;6.40;3.08;;;;;;;10.06;78.70;101276.38;4826308;29;20042;-77
2022/04/15 03:07:20;;;;;;;4.13;2.42;;;;;;;10.05;79.43;101280.25;4812482;29;20030;-77
2022/04/15 03:09:45;;;;;;;3.92;2.75;;;;;;;10.04;79.29;101277.75;4796276;29;20050;-76
2022/04/15 03:12:16;;;;;;;5.63;2.80;;;;;;;10.00;79.48;101276.59;4814529;29;20038;-77
2022/04/15 03:18:27;;;;;;;4.50;2.55;;;;;;;9.94;79.21;101272.97;4768490;30;20054;-78
2022/04/15 03:20:53;;;;;;;2.80;2.45;;;;;;;9.94;79.59;101270.22;4741224;30;20043;-77
2022/04/15 03:34:57;;;;;;;3.08;2.53;;;;;;;9.85;79.53;101280.16;4731622;30;20068;-77
2022/04/15 03:37:25;;;;;;;4.25;2.60;;;;;;;9.85;78.84;101274.63;4734529;30;20043;-76
2022/04/15 03:39:56;;;;;;;3.58;2.47;;;;;;;9.84;78.87;101278.50;4773727;29;20046;-77
2022/04/15 03:42:33;;;;;;;5.78;2.70;;;;;;;9.83;79.10;101276.81;4762468;29;20047;-77
2022/04/15 03:45:01;;;;;;;3.92;2.33;;;;;;;9.82;78.62;101275.16;4791042;29;20417;-77
2022/04/15 03:47:29;;;;;;;3.65;2.50;;;;;;;9.80;78.38;101277.38;4791471;29;20787;-77
2022/04/15 03:49:55;;;;;;;5.25;2.72;;;;;;;9.79;78.87;101275.69;4762004;29;20581;-78
2022/04/15 03:52:24;;;;;;;4.05;2.70;;;;;;;9.76;79.31;101279.84;4762529;29;20051;-77
2022/04/15 03:54:50;;;;;;;4.00;3.10;;;;;;;9.71;79.81;101270.66;4760773;29;20050;-76
2022/04/15 03:57:18;;;;;;;4.55;2.22;;;;;;;9.68;78.93;101273.97;4791254;29;20031;-77
2022/04/15 03:59:44;;;;;;;4.38;2.33;;;;;;;9.69;79.42;101270.09;4763079;29;20043;-77
2022/04/15 04:02:09;;;;;;;3.80;2.47;;;;;;;9.69;79.36;101267.31;4780305;29;20033;-76
2022/04/15 04:04:35;;;;;;;3.53;2.60;;;;;;;9.67;79.84;101278.69;4791792;29;20094;-77
2022/04/15 04:07:00;;;;;;;5.72;2.65;;;;;;;9.65;79.78;101268.97;4806893;29;20059;-77
2022/04/15 04:09:26;;;;;;;4.38;2.30;;;;;;;9.60;79.63;101270.59;4810466;29;20031;-76
2022/04/15 04:23:30;;;;;;;4.15;2.40;;;;;;;9.49;80.08;101281.91;4770235;30;20051;-76
2022/04/15 04:25:56;;;;;;;4.25;2.53;;;;;;;9.37;80.25;101279.34;4775565;30;20036;-77
2022/04/15 04:28:25;;;;;;;2.92;2.45;;;;;;;9.39;80.04;101286.31;4758194;30;20146;-77
2022/04/15 04:30:59;;;;;;;4.90;2.42;;;;;;;9.38;79.98;101287.38;4762406;30;20158;-77
2022/04/15 04:33:27;;;;;;;4.13;2.20;;;;;;;9.32;80.20;101284.84;4758661;30;20032;-77
2022/04/15 04:35:58;;;;;;;3.22;2.45;;;;;;;9.31;79.82;101291.50;4749736;30;20054;-77
2022/04/15 04:38:27;;;;;;;5.68;2.65;;;;;;;9.29;80.32;101291.75;4755290;30;20043;-77
2022/04/15 04:40:52;;;;;;;3.55;2.30;;;;;;;9.25;79.90;101289.78;4770114;30;20036;-77
2022/04/15 04:43:20;;;;;;;5.80;2.70;;;;;;;9.25;79.97;101279.56;4772044;30;20623;-77
2022/04/15 04:45:48;;;;;;;3.58;2.60;;;;;;;9.20;80.12;101296.16;4761304;30;20055;-77
2022/04/15 04:48:14;;;;;;;4.00;2.30;;;;;;;9.14;80.56;101295.28;4757352;30;20096;-77
2022/04/15 04:50:39;;;;;;;3.75;2.70;;;;;;;9.11;80.19;101295.81;4754781;30;20043;-77
2022/04/15 04:53:05;;;;;;;5.28;2.60;;;;;;;9.13;80.44;101296.34;4759898;30;20044;-77
2022/04/15 04:55:30;;;;;;;2.83;2.30;;;;;;;9.15;80.53;101302.47;4777232;29;20519;-77
2022/04/15 04:57:56;;;;;;;3.47;2.58;;;;;;;9.08;80.57;101304.66;4827051;29;20045;-77
2022/04/15 05:00:22;;;;;;;4.20;2.67;;;;;;;9.07;80.59;101308.50;4812351;29;20041;-77
2022/04/15 05:02:47;;;;;;;5.10;2.90;;;;;;;9.07;80.30;101307.66;4827227;29;20083;-77
2022/04/15 05:05:13;;;;;;;4.07;2.22;;;;;;;9.05;79.92;101310.69;4828018;29;20031;-79
2022/04/15 05:07:39;;;;;;;3.17;2.60;;;;;;;9.03;80.00;101314.84;4830060;29;20049;-77
2022/04/15 05:10:05;;;;;;;3.35;2.65;;;;;;;9.01;79.87;101328.97;4828899;29;20034;-79
2022/04/15 05:12:31;;;;;;;2.83;2.50;;;;;;;8.99;79.90;101330.31;4819363;29;20046;-78
2022/04/15 05:14:56;;;;;;;4.93;2.80;;;;;;;8.99;79.80;101331.16;4831866;29;20034;-78
2022/04/15 05:17:21;;;;;;;3.90;2.70;;;;;;;8.99;80.09;101333.09;4829689;29;20135;-78
2022/04/15 05:19:47;;;;;;;4.75;2.58;;;;;;;8.97;80.58;101338.91;4828166;29;20037;-79
2022/04/15 05:22:12;;;;;;;5.63;4.10;;;;;;;8.90;82.88;101347.41;4814947;29;20030;-79
2022/04/15 05:24:38;;;;;;;5.68;3.35;;;;;;;8.94;82.11;101350.50;4828149;29;20030;-79
2022/04/15 05:27:07;;;;;;;3.45;3.05;;;;;;;8.92;81.51;101349.94;4829974;29;20030;-79
2022/04/15 05:29:33;;;;;;;4.25;3.15;;;;;;;8.92;81.47;101350.78;4813191;29;20066;-78
2022/04/15 05:31:58;;;;;;;4.82;3.53;;;;;;;8.91;81.38;101342.72;4812487;29;20033;-79
2022/04/15 05:34:24;;;;;;;4.28;3.22;;;;;;;8.92;81.83;101348.00;4824986;29;20416;-79
2022/04/15 05:36:49;;;;;;;4.88;3.33;;;;;;;8.93;81.60;101354.38;4827370;29;20034;-79
2022/04/15 05:39:15;;;;;;;4.22;3.00;;;;;;;9.01;81.18;101348.34;4832226;29;20042;-78
2022/04/15 05:41:40;;;;;;;3.88;3.03;;;;;;;8.99;81.99;101355.25;4829673;29;20026;-78
2022/04/15 05:44:08;;;;;;;4.85;3.75;;;;;;;9.01;83.89;101353.91;4828726;29;20046;-78
2022/04/15 05:46:34;;;;;;;6.05;3.17;;;;;;;9.05;84.38;101348.66;4828600;29;20472;-78
2022/04/15 05:49:00;;;;;;;5.82;2.95;;;;;;;9.10;84.31;101348.72;4824731;29;20050;-78
2022/04/15 05:51:25;;;;;;;3.58;2.65;;;;;;;9.16;82.87;101355.97;4826109;29;20378;-78
2022/04/15 05:53:51;;;;;;;4.63;3.15;;;;;;;9.21;84.41;101352.41;4812287;29;20023;-78
2022/04/15 05:56:16;;;;;;;4.85;3.80;;;;;;;9.27;84.60;101352.16;4810830;29;20037;-76
2022/04/15 05:58:42;;;;;;;6.38;4.20;;;;;;;9.33;87.09;101351.13;4827356;29;20053;-78
2022/04/15 06:01:09;;;;;;;6.28;4.63;;;;;;;9.43;91.49;101355.91;4812188;29;20111;-79
2022/04/15 06:03:37;;;;;;;6.50;4.32;;;;;;;9.51;88.92;101355.41;4817136;29;20034;-78
2022/04/15 06:06:04;;;;;;;7.78;5.20;;;;;;;9.59;90.41;101359.63;4829924;29;20049;-77
2022/04/15 06:08:48;;;;;;;13.00;6.80;;;;;;;9.70;97.01;101366.91;4812109;29;20037;-78
2022/04/15 06:11:14;;;;;;;9.68;6.65;;;;;;;9.79;97.79;101370.03;4794191;29;20130;-73
2022/04/15 06:13:42;;;;;;;6.65;5.22;;;;;;;9.90;92.89;101371.75;4824213;29;20049;-75
2022/04/15 06:16:09;;;;;;;9.48;6.25;;;;;;;10.02;94.95;101372.38;4812502;29;20838;-75
2022/04/15 06:18:36;;;;;;;7.88;4.88;;;;;;;10.14;92.28;101382.41;4828338;29;20038;-75
2022/04/15 06:21:04;;;;;;;14.25;5.95;;;;;;;10.29;94.96;101379.75;4811904;29;20042;-76
2022/04/15 06:23:30;;;;;;;10.80;5.65;;;;;;;10.41;95.63;101385.91;4811671;29;20042;-76
2022/04/15 06:25:55;;;;;;;9.90;4.65;;;;;;;10.54;88.33;101392.06;4811712;29;20058;-76
2022/04/15 06:28:21;;;;;;;7.57;4.43;;;;;;;10.70;89.48;101391.84;4823019;29;20031;-75
2022/04/15 06:30:50;;;;;;;7.90;4.43;;;;;;;10.86;93.03;101389.09;4829850;29;20045;-75
2022/04/15 06:33:16;;;;;;;7.30;4.63;;;;;;;11.02;92.85;101384.41;4811823;29;20488;-75
2022/04/15 06:35:42;;;;;;;10.30;4.80;;;;;;;11.15;91.02;101386.66;4826111;29;20518;-76
2022/04/15 06:38:07;;;;;;;6.30;3.38;;;;;;;11.31;86.87;101382.78;4811396;29;20042;-76
2022/04/15 06:40:34;;;;;;;6.25;4.07;;;;;;;11.48;87.41;101384.41;4828003;29;20031;-76
2022/04/15 06:42:59;;;;;;;10.02;5.25;;;;;;;11.65;91.77;101400.84;4811335;29;20484;-76
2022/04/15 06:45:25;;;;;;;7.70;4.20;;;;;;;11.79;87.74;101391.63;4826569;29;20099;-72
2022/04/15 06:47:50;;;;;;;7.35;4.07;;;;;;;11.97;87.19;101397.75;4826971;29;20113;-73
2022/04/15 06:50:16;;;;;;;9.93;4.28;;;;;;;12.17;87.93;101402.44;4826723;29;20039;-73
2022/04/15 06:52:42;;;;;;;5.68;3.88;;;;;;;12.33;84.66;101404.03;4828949;29;20061;-72
2022/04/15 06:55:07;;;;;;;5.47;3.65;;;;;;;12.51;83.65;101402.59;4831628;29;20034;-72
2022/04/15 06:57:33;;;;;;;7.40;4.60;;;;;;;12.69;87.27;101395.53;4826949;29;20030;-73
2022/04/15 06:59:59;;;;;;;11.18;5.15;;;;;;;12.86;87.92;101401.56;4827520;29;20494;-73
2022/04/15 07:02:27;;;;;;;6.95;4.80;;;;;;;13.04;85.96;101400.06;4826440;29;20030;-73
2022/04/15 07:04:53;;;;;;;6.10;4.28;;;;;;;13.23;84.50;101404.94;4827534;29;20087;-73
2022/04/15 07:07:18;;;;;;;5.15;4.20;;;;;;;13.42;86.02;101411.53;4824063;29;20038;-73
2022/04/15 07:09:49;;;;;;;6.43;4.20;;;;;;;13.57;85.56;101403.03;4827358;29;20038;-72
2022/04/15 07:12:16;;;;;;;5.45;3.67;;;;;;;13.78;85.06;101412.03;4827656;29;20038;-73
2022/04/15 07:14:41;;;;;;;7.93;5.45;;;;;;;13.95;85.64;101403.22;4827467;29;20050;-73
2022/04/15 07:17:07;;;;;;;6.07;4.25;;;;;;;14.12;83.16;101407.53;4815994;29;20039;-73
2022/04/15 07:19:32;;;;;;;7.25;4.80;;;;;;;14.32;82.92;101415.69;4831605;29;20041;-73
2022/04/15 07:21:58;;;;;;;11.00;5.03;;;;;;;14.48;81.83;101408.75;4827353;29;20038;-73
2022/04/15 07:24:23;;;;;;;4.63;3.55;;;;;;;14.68;79.71;101406.88;4827296;29;20095;-73
2022/04/15 07:26:49;;;;;;;6.25;4.68;;;;;;;14.85;80.55;101410.00;4826195;29;20041;-73
2022/04/15 07:29:14;;;;;;;4.30;3.38;;;;;;;15.06;77.77;101398.50;4827382;29;20031;-72
2022/04/15 07:31:42;;;;;;;5.32;3.30;;;;;;;15.24;77.01;101399.63;4826994;29;20034;-73
2022/04/15 07:34:07;;;;;;;6.30;3.08;;;;;;;15.40;77.48;101399.06;4827420;29;20051;-73
2022/04/15 07:39:06;;;;;;;4.43;3.28;;;;;;;15.81;77.05;101394.78;4826019;29;20041;-73
2022/04/15 07:41:32;;;;;;;6.50;4.57;;;;;;;15.96;79.59;101402.06;4827492;29;20079;-73
2022/04/15 07:43:58;;;;;;;6.35;4.55;;;;;;;16.08;79.47;101397.63;4811323;29;20047;-73
2022/04/15 07:46:23;;;;;;;9.70;6.07;;;;;;;16.25;80.41;101404.59;4823487;29;20031;-73
2022/04/15 07:48:49;;;;;;;8.13;5.90;;;;;;;16.41;79.44;101416.31;4827080;29;20587;-73
2022/04/15 07:51:15;;;;;;;10.13;6.40;;;;;;;16.53;79.74;101413.84;4826797;29;20556;-73
2022/04/15 07:53:41;;;;;;;10.38;6.53;;;;;;;16.63;79.23;101413.63;4826897;29;20038;-72
2022/04/15 07:56:06;;;;;;;10.05;6.03;;;;;;;16.78;79.08;101420.06;4825775;29;20095;-71
2022/04/15 07:58:32;;;;;;;10.02;6.03;;;;;;;16.88;78.30;101414.22;4826968;29;20034;-71
2022/04/15 08:01:00;;;;;;;10.50;5.57;;;;;;;16.98;78.37;101417.63;4826906;29;20045;-71
2022/04/15 08:03:29;;;;;;;11.68;6.15;;;;;;;17.14;79.37;101415.31;4827072;29;20034;-71
2022/04/15 08:05:55;;;;;;;6.10;4.80;;;;;;;17.29;77.06;101414.09;4827068;29;20039;-71
2022/04/15 08:08:20;;;;;;;8.80;5.55;;;;;;;17.42;76.99;101412.41;4830756;29;20041;-71
2022/04/15 08:10:48;;;;;;;7.22;4.50;;;;;;;17.56;76.79;101406.72;4827752;29;20476;-71
2022/04/15 08:13:14;;;;;;;8.60;5.13;;;;;;;17.70;78.65;101406.66;4826629;29;20404;-71
2022/04/15 08:15:39;;;;;;;6.93;5.13;;;;;;;17.81;78.02;101403.28;4823968;29;20045;-71
2022/04/15 08:18:05;;;;;;;10.63;5.38;;;;;;;17.93;78.22;101402.69;4818646;29;20034;-71
2022/04/15 08:20:30;;;;;;;10.65;4.97;;;;;;;18.05;77.89;101402.06;4830130;29;20038;-71
2022/04/15 08:22:56;;;;;;;8.35;5.60;;;;;;;18.14;78.28;101405.78;4828977;29;20039;-71
2022/04/15 08:25:21;;;;;;;6.95;4.88;;;;;;;18.29;78.26;101410.13;4830065;29;20034;-72
2022/04/15 08:27:47;;;;;;;8.82;4.80;;;;;;;18.43;79.19;101402.41;4830129;29;20038;-72
2022/04/15 08:30:12;;;;;;;5.05;3.55;;;;;;;18.60;74.61;101400.81;4828678;29;20569;-72
2022/04/15 08:32:38;;;;;;;5.90;3.95;;;;;;;18.75;75.57;101408.81;4824949;29;20042;-72
2022/04/15 08:35:05;;;;;;;3.88;2.63;;;;;;;18.88;72.32;101405.03;4831099;29;20039;-72
2022/04/15 08:37:30;;;;;;;5.63;3.30;;;;;;;19.08;73.94;101400.72;4829739;29;20030;-72
2022/04/15 08:39:56;;;;;;;8.27;2.83;;;;;;;19.27;71.19;101399.59;4829898;29;20041;-72
2022/04/15 08:42:21;;;;;;;2.85;2.10;;;;;;;19.46;71.00;101399.25;4828536;29;20091;-72
2022/04/15 08:44:51;;;;;;;3.20;1.88;;;;;;;19.69;71.15;101403.56;4828492;29;20058;-72
2022/04/15 08:47:16;;;;;;;2.60;1.92;;;;;;;19.86;68.21;101400.72;4829878;29;20089;-72
2022/04/15 08:49:42;;;;;;;3.58;1.65;;;;;;;20.08;66.16;101393.16;4829656;29;20119;-72
2022/04/15 08:52:09;;;;;;;2.88;1.38;;;;;;;20.29;65.73;101399.72;4825113;29;20034;-72
2022/04/15 08:54:35;;;;;;;4.47;1.42;;;;;;;20.47;65.79;101402.47;4827739;29;20087;-72
2022/04/15 08:57:00;;;;;;;5.20;1.50;;;;;;;20.64;64.21;101401.56;4832793;29;20507;-72
2022/04/15 08:59:26;;;;;;;2.65;1.50;;;;;;;20.80;62.20;101410.28;4815308;29;20035;-72
2022/04/15 09:01:52;;;;;;;4.90;1.50;;;;;;;21.01;59.38;101411.13;4829439;29;20038;-71
2022/04/15 09:04:20;;;;;;;4.30;1.60;;;;;;;21.13;60.83;101399.06;4829686;29;20075;-71
2022/04/15 09:06:45;;;;;;;3.53;1.40;;;;;;;21.26;60.73;101399.97;4829241;29;20042;-71
2022/04/15 09:09:14;;;;;;;4.15;1.27;;;;;;;21.41;60.75;101400.19;4827996;29;20034;-72
2022/04/15 09:11:41;;;;;;;2.60;1.20;;;;;;;21.54;59.77;101400.25;4828498;29;20035;-72
2022/04/15 09:14:11;;;;;;;2.53;0.90;;;;;;;21.64;59.48;101400.63;4843357;29;20079;-72
2022/04/15 09:16:40;;;;;;;3.10;0.90;;;;;;;21.76;59.50;101404.69;4817934;29;20038;-72
2022/04/15 09:19:07;;;;;;;4.75;1.50;;;;;;;21.89;55.73;101403.53;4827806;29;20105;-72
2022/04/15 09:21:32;;;;;;;2.92;1.33;;;;;;;22.04;56.10;101390.75;4831499;29;20030;-72
2022/04/15 09:23:58;;;;;;;2.20;1.27;;;;;;;22.21;55.41;101401.06;4832011;29;20061;-71
2022/04/15 09:26:24;;;;;;;3.38;1.10;;;;;;;22.30;57.38;101408.22;4829083;29;20041;-72
2022/04/15 09:28:50;;;;;;;2.42;1.13;;;;;;;22.41;57.16;101416.28;4829001;29;20037;-72
2022/04/15 09:31:16;;;;;;;2.80;1.10;;;;;;;22.48;57.07;101408.84;4828209;29;20441;-72
2022/04/15 09:33:55;;;;;;;3.08;1.50;;;;;;;22.56;53.30;101409.06;4828851;29;20038;-72
2022/04/15 09:36:24;;;;;;;1.85;0.82;;;;;;;22.65;54.64;101413.44;4827730;29;20065;-72
2022/04/15 09:38:51;;;;;;;3.33;0.93;;;;;;;22.72;55.36;101404.34;4843053;29;20034;-73
2022/04/15 09:41:23;;;;;;;3.35;1.27;;;;;;;22.87;54.81;101414.09;4827665;29;20030;-72
2022/04/15 09:43:52;;;;;;;3.67;0.90;;;;;;;22.95;54.77;101411.19;4828662;29;20728;-73
2022/04/15 09:46:19;;;;;;;5.18;1.25;;;;;;;23.05;52.74;101414.72;4829999;29;20074;-76
2022/04/15 09:49:02;;;;;;;2.72;0.80;;;;;;;23.19;54.42;101412.31;4816104;29;20044;-76
2022/04/15 09:51:33;;;;;;;3.75;1.00;;;;;;;23.32;54.09;101422.44;4807358;29;20050;-76
2022/04/15 09:54:01;;;;;;;1.63;1.00;;;;;;;23.42;53.85;101418.25;4795224;29;20087;-76
2022/04/15 09:56:27;;;;;;;3.30;1.00;;;;;;;23.50;54.35;101425.78;4809855;29;20030;-76
2022/04/15 09:58:56;;;;;;;4.72;1.48;;;;;;;23.68;54.20;101420.66;4812615;29;20030;-76
2022/04/15 10:01:22;;;;;;;3.72;1.42;;;;;;;23.85;53.69;101414.69;4827506;29;20027;-76
2022/04/15 10:03:49;;;;;;;4.63;1.63;;;;;;;23.96;50.43;101419.81;4842636;29;20060;-76
2022/04/15 10:06:15;;;;;;;3.13;1.00;;;;;;;24.07;52.02;101424.59;4812062;29;20046;-76
2022/04/15 10:08:42;;;;;;;2.53;1.10;;;;;;;24.13;51.42;101421.50;4800066;29;20030;-76
2022/04/15 10:11:07;;;;;;;3.17;1.30;;;;;;;24.22;51.75;101422.97;4829281;29;20046;-77
2022/04/15 10:13:35;;;;;;;2.22;0.90;;;;;;;24.32;51.78;101424.41;4819635;29;20055;-76
2022/04/15 10:16:00;;;;;;;1.73;1.40;;;;;;;24.36;50.78;101422.50;4811844;29;20456;-76
2022/04/15 10:18:26;;;;;;;3.55;1.40;;;;;;;24.51;50.69;101424.53;4811158;29;20027;-77
2022/04/15 10:20:51;;;;;;;3.17;1.58;;;;;;;24.62;51.14;101427.63;4832608;29;20038;-73
2022/04/15 10:23:17;;;;;;;3.83;1.50;;;;;;;24.72;51.12;101424.25;4826952;29;20054;-75
2022/04/15 10:25:48;;;;;;;4.25;1.48;;;;;;;24.86;50.97;101422.94;4811703;29;20034;-75
2022/04/15 10:28:18;;;;;;;3.35;1.33;;;;;;;24.93;50.43;101420.25;4806690;29;20126;-74
2022/04/15 10:30:51;;;;;;;2.15;1.40;;;;;;;25.01;47.95;101424.91;4810143;29;20544;-73
2022/04/15 10:33:30;;;;;;;2.90;1.35;;;;;;;25.22;49.36;101423.81;4811929;29;20109;-73
2022/04/15 10:36:09;;;;;;;2.95;1.30;;;;;;;25.40;50.44;101425.81;4828840;29;20042;-73
2022/04/15 10:38:35;;;;;;;3.42;1.42;;;;;;;25.50;47.82;101424.41;4825805;29;20030;-73
2022/04/15 10:41:16;;;;;;;3.78;1.50;;;;;;;25.58;45.61;101419.69;4841546;29;20046;-73
2022/04/15 10:43:57;;;;;;;3.78;1.58;;;;;;;25.67;45.53;101422.31;4816333;29;20034;-73
2022/04/15 10:46:30;;;;;;;3.22;1.70;;;;;;;25.83;47.29;101417.38;4826668;29;20034;-74
2022/04/15 10:48:58;;;;;;;5.10;1.58;;;;;;;25.96;45.57;101415.97;4827847;29;20042;-74
2022/04/15 10:51:26;;;;;;;3.92;1.98;;;;;;;26.05;44.57;101412.91;4811212;29;20424;-73
2022/04/15 10:53:52;;;;;;;2.88;1.33;;;;;;;26.19;44.06;101409.50;4826490;29;20038;-74
2022/04/15 10:56:23;;;;;;;3.83;2.13;;;;;;;26.27;44.19;101408.41;4826909;29;20046;-74
2022/04/15 11:01:59;;;;;;;4.70;2.50;;;;;;;26.49;43.02;101396.19;4830525;29;20037;-75
2022/04/15 11:04:25;;;;;;;5.80;1.92;;;;;;;26.60;41.96;101404.91;4826516;29;20038;-75
2022/04/15 11:06:51;;;;;;;3.42;1.80;;;;;;;26.62;41.55;101399.69;4826157;29;20094;-74
2022/04/15 11:09:20;;;;;;;5.95;2.22;;;;;;;26.54;40.88;101397.09;4796340;29;20035;-73
2022/04/15 11:11:50;;;;;;;4.68;2.38;;;;;;;26.35;41.62;101404.47;4809542;29;20121;-74
2022/04/15 11:14:16;;;;;;;4.38;1.75;;;;;;;26.19;41.19;101400.97;4825261;29;20042;-73
2022/04/15 11:16:46;;;;;;;4.03;2.17;;;;;;;25.88;41.86;101399.97;4810081;29;20469;-74
2022/04/15 11:19:12;;;;;;;5.93;2.10;;;;;;;25.54;42.11;101394.00;4826218;29;20022;-74
2022/04/15 11:21:39;;;;;;;4.55;2.50;;;;;;;25.22;43.58;101399.03;4809768;29;20045;-75
2022/04/15 11:24:07;;;;;;;4.80;2.30;;;;;;;24.91;44.08;101394.25;4827254;29;20037;-73
2022/04/15 11:26:34;;;;;;;4.72;2.10;;;;;;;24.79;44.74;101391.53;4829845;29;20037;-73
2022/04/15 11:29:00;;;;;;;6.75;1.83;;;;;;;24.65;44.83;101389.97;4824401;29;20038;-73
2022/04/15 11:31:26;;;;;;;4.75;2.05;;;;;;;24.62;44.81;101392.75;4824455;29;20490;-72
2022/04/15 11:33:52;;;;;;;2.33;2.00;;;;;;;24.56;45.32;101392.19;4839904;29;20094;-73
2022/04/15 11:36:18;;;;;;;3.65;1.98;;;;;;;24.48;45.80;101396.06;4824705;29;20113;-73
2022/04/15 11:38:45;;;;;;;3.35;1.80;;;;;;;24.40;46.11;101397.84;4825407;29;20083;-74
2022/04/15 11:41:21;;;;;;;3.63;2.15;;;;;;;24.21;47.15;101394.94;4809699;29;20511;-74
2022/04/15 11:44:02;;;;;;;3.35;1.50;;;;;;;24.19;46.95;101394.50;4824694;29;20070;-73
2022/04/15 11:46:38;;;;;;;6.93;1.67;;;;;;;24.05;45.31;101394.94;4824787;29;20377;-73
2022/04/15 11:49:10;;;;;;;3.15;1.50;;;;;;;24.03;45.22;101386.78;4810732;29;20086;-73
2022/04/15 11:51:36;;;;;;;3.53;1.40;;;;;;;23.93;43.76;101390.19;4828556;29;20045;-73
2022/04/15 11:54:01;;;;;;;2.65;1.30;;;;;;;23.88;45.01;101392.47;4827908;29;20038;-73
2022/04/15 11:56:29;;;;;;;4.10;1.30;;;;;;;23.83;44.37;101390.69;4829156;29;20508;-73
2022/04/15 11:58:56;;;;;;;3.35;1.30;;;;;;;23.79;44.12;101387.78;4829499;29;20030;-73
2022/04/15 12:01:25;;;;;;;5.90;1.67;;;;;;;23.70;45.01;101389.09;4814633;29;20034;-73
2022/04/15 12:03:51;;;;;;;4.18;1.38;;;;;;;23.66;44.48;101386.16;4830445;29;20046;-73
2022/04/15 12:06:16;;;;;;;4.28;1.70;;;;;;;23.60;44.42;101396.13;4829061;29;20037;-73
2022/04/15 12:08:42;;;;;;;2.85;1.55;;;;;;;23.55;46.61;101385.84;4830271;29;20030;-73
2022/04/15 12:11:09;;;;;;;3.83;1.70;;;;;;;23.53;46.35;101395.91;4830446;29;20132;-73